Time;durP1;ratioP1;P1;durP2;ratioP2;P2;SDS_P1;SDS_P2;PMS_P1;PMS_P2;Temp;Humidity;BMP_temperature;BMP_pressure;BME280_temperature;BME280_humidity;BME280_pressure;Samples;Min_cycle;Max_cycle;Signal;HPM_P1;HPM_P2
2022/05/23 00:00:23;;;;;;;3.50;2.13;;;;;;;;;;4991857;28;20260;-72
2022/05/23 00:02:52;;;;;;;3.17;2.20;;;;;;;;;;4990654;28;20277;-72
2022/05/23 00:05:22;;;;;;;2.77;2.43;;;;;;;;;;4991513;28;20216;-72
2022/05/23 00:07:50;;;;;;;3.87;2.50;;;;;;;;;;4992036;28;20453;-72
2022/05/23 00:10:20;;;;;;;4.97;2.30;;;;;;;;;;4991680;28;20257;-72
2022/05/23 00:12:49;;;;;;;3.20;2.20;;;;;;;;;;4991700;28;20275;-72
2022/05/23 00:15:17;;;;;;;3.30;2.20;;;;;;;;;;4992729;28;20201;-72
2022/05/23 00:17:46;;;;;;;3.27;2.23;;;;;;;;;;4994872;28;20830;-71
2022/05/23 00:20:15;;;;;;;4.17;2.10;;;;;;;;;;4992277;28;20205;-72
2022/05/23 00:22:45;;;;;;;3.90;2.37;;;;;;;;;;4994768;28;20209;-72
2022/05/23 00:25:14;;;;;;;3.70;2.03;;;;;;;;;;4991139;28;20248;-72
2022/05/23 00:27:43;;;;;;;3.23;2.43;;;;;;;;;;4994447;28;20251;-71
2022/05/23 00:30:14;;;;;;;3.43;2.20;;;;;;;;;;4995459;28;20660;-72
2022/05/23 00:35:30;;;;;;;2.47;2.17;;;;;;;;;;4993257;28;20244;-72
2022/05/23 00:38:00;;;;;;;4.73;2.43;;;;;;;;;;5000614;28;20233;-72
2022/05/23 00:40:35;;;;;;;3.77;2.40;;;;;;;;;;4993879;28;20715;-72
2022/05/23 00:43:15;;;;;;;3.73;2.30;;;;;;;;;;4993850;28;20244;-72
2022/05/23 00:45:48;;;;;;;3.97;2.33;;;;;;;;;;4991570;28;21139;-72
2022/05/23 00:48:17;;;;;;;3.30;2.00;;;;;;;;;;4996021;28;20244;-72
2022/05/23 00:50:48;;;;;;;3.13;2.23;;;;;;;;;;4994167;28;20201;-72
2022/05/23 00:53:19;;;;;;;3.77;2.40;;;;;;;;;;4994966;28;20283;-72
2022/05/23 00:55:49;;;;;;;2.87;2.33;;;;;;;;;;4987845;28;20202;-72
2022/05/23 00:58:19;;;;;;;5.13;2.33;;;;;;;;;;4993375;28;20225;-72
2022/05/23 01:00:48;;;;;;;4.50;2.20;;;;;;;;;;4991617;28;20209;-72
2022/05/23 01:03:17;;;;;;;3.93;2.33;;;;;;;;;;4994054;28;20198;-71
2022/05/23 01:05:46;;;;;;;4.30;2.33;;;;;;;;;;4995830;28;20603;-72
2022/05/23 01:08:16;;;;;;;4.67;2.27;;;;;;;;;;4994751;28;20221;-71
2022/05/23 01:10:47;;;;;;;5.40;2.50;;;;;;;;;;4993196;28;20610;-72
2022/05/23 01:13:16;;;;;;;4.50;2.33;;;;;;;;;;4993229;28;20747;-72
2022/05/23 01:15:45;;;;;;;4.20;2.40;;;;;;;;;;4995381;28;20562;-71
2022/05/23 01:18:14;;;;;;;3.77;2.30;;;;;;;;;;4992646;28;20295;-71
2022/05/23 01:20:44;;;;;;;6.30;2.30;;;;;;;;;;4994447;28;20205;-72
2022/05/23 01:23:16;;;;;;;4.53;2.70;;;;;;;;;;4993048;28;20221;-71
2022/05/23 01:25:46;;;;;;;4.13;2.33;;;;;;;;;;4996681;28;20201;-71
2022/05/23 01:28:16;;;;;;;4.03;2.60;;;;;;;;;;4995492;28;20225;-71
2022/05/23 01:30:45;;;;;;;3.40;2.27;;;;;;;;;;4993720;28;20252;-71
2022/05/23 01:33:15;;;;;;;5.20;2.40;;;;;;;;;;4994249;28;20232;-72
2022/05/23 01:35:43;;;;;;;5.70;2.67;;;;;;;;;;4996940;28;20205;-73
2022/05/23 01:38:12;;;;;;;4.67;2.67;;;;;;;;;;4997497;28;20225;-71
2022/05/23 01:40:40;;;;;;;3.07;2.30;;;;;;;;;;4995018;28;20212;-72
2022/05/23 01:43:11;;;;;;;4.93;2.40;;;;;;;;;;4991011;28;20560;-71
2022/05/23 01:45:41;;;;;;;6.33;2.70;;;;;;;;;;4994030;28;20217;-72
2022/05/23 01:48:10;;;;;;;3.40;2.53;;;;;;;;;;4993022;28;21228;-72
2022/05/23 01:50:38;;;;;;;4.27;2.57;;;;;;;;;;4991175;28;20254;-72
2022/05/23 01:53:07;;;;;;;3.20;2.57;;;;;;;;;;4991446;28;20226;-71
2022/05/23 01:55:36;;;;;;;3.47;2.87;;;;;;;;;;4987031;28;20267;-71
2022/05/23 01:58:05;;;;;;;3.37;2.60;;;;;;;;;;4994558;28;20696;-72
2022/05/23 02:03:21;;;;;;;3.53;3.10;;;;;;;;;;4993342;28;20255;-71
2022/05/23 02:05:49;;;;;;;4.33;3.00;;;;;;;;;;4990934;28;20574;-72
2022/05/23 02:08:18;;;;;;;5.10;3.00;;;;;;;;;;4989381;28;20233;-72
2022/05/23 02:10:46;;;;;;;2.90;2.60;;;;;;;;;;4992076;28;20213;-72
2022/05/23 02:13:20;;;;;;;3.67;2.70;;;;;;;;;;4994202;28;20220;-72
2022/05/23 02:15:50;;;;;;;4.33;3.03;;;;;;;;;;4990386;28;20209;-72
2022/05/23 02:18:19;;;;;;;5.17;2.90;;;;;;;;;;4993664;28;20591;-71
2022/05/23 02:20:47;;;;;;;3.97;2.63;;;;;;;;;;4993591;28;20703;-71
2022/05/23 02:23:15;;;;;;;3.87;2.80;;;;;;;;;;4992222;28;20213;-72
2022/05/23 02:25:44;;;;;;;4.97;3.03;;;;;;;;;;4991947;28;20197;-73
2022/05/23 02:28:12;;;;;;;3.00;2.80;;;;;;;;;;4992307;28;20225;-73
2022/05/23 02:30:40;;;;;;;5.33;2.93;;;;;;;;;;4990790;28;20263;-71
2022/05/23 02:33:10;;;;;;;3.37;2.80;;;;;;;;;;4993694;28;20229;-72
2022/05/23 02:35:39;;;;;;;3.87;3.03;;;;;;;;;;4997858;28;20209;-72
2022/05/23 02:38:07;;;;;;;3.73;3.27;;;;;;;;;;4996622;28;20588;-71
2022/05/23 02:40:36;;;;;;;3.97;3.13;;;;;;;;;;4990936;28;20224;-72
2022/05/23 02:43:04;;;;;;;4.53;3.53;;;;;;;;;;4993502;28;20205;-72
2022/05/23 02:45:32;;;;;;;4.70;2.90;;;;;;;;;;4990899;28;20325;-72
2022/05/23 02:48:01;;;;;;;3.73;2.90;;;;;;;;;;4992883;28;20641;-72
2022/05/23 02:50:31;;;;;;;6.20;3.20;;;;;;;;;;4989869;28;20247;-72
2022/05/23 02:52:59;;;;;;;7.50;3.53;;;;;;;;;;4993527;28;20268;-72
2022/05/23 02:55:27;;;;;;;5.03;3.20;;;;;;;;;;4992688;28;20209;-72
2022/05/23 02:57:56;;;;;;;5.47;3.20;;;;;;;;;;4993702;28;20228;-72
2022/05/23 03:00:24;;;;;;;5.97;3.50;;;;;;;;;;4992320;28;20209;-72
2022/05/23 03:03:03;;;;;;;4.47;3.37;;;;;;;;;;4991529;28;20839;-72
2022/05/23 03:05:38;;;;;;;4.10;3.30;;;;;;;;;;4990954;28;20212;-72
2022/05/23 03:08:06;;;;;;;6.70;3.50;;;;;;;;;;4991882;28;20224;-72
2022/05/23 03:10:35;;;;;;;4.77;3.33;;;;;;;;;;4992964;28;20279;-72
2022/05/23 03:13:04;;;;;;;5.00;3.33;;;;;;;;;;4988462;28;20283;-72
2022/05/23 03:15:33;;;;;;;5.57;3.67;;;;;;;;;;4991144;28;20652;-72
2022/05/23 03:18:02;;;;;;;3.73;3.30;;;;;;;;;;4992244;28;20221;-72
2022/05/23 03:20:30;;;;;;;4.57;3.47;;;;;;;;;;4988566;28;20554;-72
2022/05/23 03:28:34;;;;;;;8.63;3.60;;;;;;;;;;4993203;28;20241;-72
2022/05/23 03:31:03;;;;;;;4.90;3.50;;;;;;;;;;4990255;28;20201;-73
2022/05/23 03:33:32;;;;;;;5.33;3.17;;;;;;;;;;4992812;28;21357;-73
2022/05/23 03:36:00;;;;;;;3.57;3.27;;;;;;;;;;4993323;28;20213;-73
2022/05/23 03:38:30;;;;;;;4.27;3.10;;;;;;;;;;4991943;28;20236;-72
2022/05/23 03:41:05;;;;;;;4.10;3.33;;;;;;;;;;4993489;28;20209;-72
2022/05/23 03:43:33;;;;;;;4.83;3.20;;;;;;;;;;4991906;28;20204;-72
2022/05/23 03:46:08;;;;;;;5.30;3.37;;;;;;;;;;4990685;28;20213;-72
2022/05/23 03:48:37;;;;;;;5.00;3.20;;;;;;;;;;4993121;28;20225;-72
2022/05/23 03:51:06;;;;;;;3.87;3.40;;;;;;;;;;4978708;28;20207;-72
2022/05/23 03:53:36;;;;;;;8.03;3.67;;;;;;;;;;4996278;28;20231;-72
2022/05/23 03:56:06;;;;;;;3.97;3.20;;;;;;;;;;4995158;28;20209;-72
2022/05/23 03:58:34;;;;;;;5.47;3.50;;;;;;;;;;4995433;28;20233;-72
2022/05/23 04:01:10;;;;;;;6.80;3.40;;;;;;;;;;4991176;28;20231;-72
2022/05/23 04:03:39;;;;;;;5.07;3.33;;;;;;;;;;4996202;28;20223;-73
2022/05/23 04:06:07;;;;;;;6.07;3.70;;;;;;;;;;4994653;28;20577;-72
2022/05/23 04:08:37;;;;;;;4.53;3.40;;;;;;;;;;4995430;28;20252;-73
2022/05/23 04:11:06;;;;;;;4.90;3.60;;;;;;;;;;4993212;28;20275;-72
2022/05/23 04:13:35;;;;;;;4.53;3.37;;;;;;;;;;4993403;28;20256;-72
2022/05/23 04:16:04;;;;;;;4.10;3.40;;;;;;;;;;4997378;28;20213;-72
2022/05/23 04:18:33;;;;;;;6.33;3.43;;;;;;;;;;4991708;28;20220;-73
2022/05/23 04:21:02;;;;;;;3.80;3.43;;;;;;;;;;4992075;28;20206;-72
2022/05/23 04:23:31;;;;;;;4.13;3.60;;;;;;;;;;4995580;28;20583;-72
2022/05/23 04:26:03;;;;;;;3.77;3.10;;;;;;;;;;4994304;28;20201;-72
2022/05/23 04:28:31;;;;;;;5.87;3.40;;;;;;;;;;4994839;28;20233;-72
2022/05/23 04:31:00;;;;;;;6.70;3.50;;;;;;;;;;4996489;28;20217;-72
2022/05/23 04:36:14;;;;;;;4.73;3.17;;;;;;;;;;4998191;28;20204;-72
2022/05/23 04:38:44;;;;;;;5.00;3.47;;;;;;;;;;4987589;28;20233;-72
2022/05/23 04:41:14;;;;;;;5.50;3.27;;;;;;;;;;4988846;28;20256;-72
2022/05/23 04:43:43;;;;;;;4.77;3.53;;;;;;;;;;4994869;28;20205;-72
2022/05/23 04:46:11;;;;;;;5.80;3.37;;;;;;;;;;4990004;28;20311;-72
2022/05/23 04:51:25;;;;;;;3.50;3.17;;;;;;;;;;4993816;28;20596;-72
2022/05/23 04:53:55;;;;;;;4.80;3.50;;;;;;;;;;4992448;28;20683;-73
2022/05/23 04:56:26;;;;;;;5.63;3.10;;;;;;;;;;4994354;28;20193;-72
2022/05/23 04:58:55;;;;;;;3.63;2.80;;;;;;;;;;4993745;28;20240;-72
2022/05/23 05:01:23;;;;;;;7.83;3.20;;;;;;;;;;4992973;28;20202;-72
2022/05/23 05:03:53;;;;;;;5.30;3.33;;;;;;;;;;4992160;28;20255;-72
2022/05/23 05:06:21;;;;;;;4.57;3.37;;;;;;;;;;4991492;28;20232;-72
2022/05/23 05:08:50;;;;;;;4.13;3.33;;;;;;;;;;4991864;28;20311;-72
2022/05/23 05:11:19;;;;;;;3.43;2.83;;;;;;;;;;4991232;28;20201;-73
2022/05/23 05:13:50;;;;;;;4.07;2.93;;;;;;;;;;4991163;28;20708;-73
2022/05/23 05:16:23;;;;;;;4.90;3.27;;;;;;;;;;4995190;28;20570;-72
2022/05/23 05:18:58;;;;;;;3.47;2.90;;;;;;;;;;4993953;28;20608;-72
2022/05/23 05:21:26;;;;;;;5.00;3.07;;;;;;;;;;4993732;28;20690;-72
2022/05/23 05:23:55;;;;;;;4.90;3.30;;;;;;;;;;4993219;28;20291;-72
2022/05/23 05:26:24;;;;;;;4.73;3.20;;;;;;;;;;5002585;28;20215;-72
2022/05/23 05:28:54;;;;;;;4.07;3.00;;;;;;;;;;4993170;28;20267;-72
2022/05/23 05:31:25;;;;;;;4.87;3.07;;;;;;;;;;4998121;28;20205;-72
2022/05/23 05:33:55;;;;;;;6.03;2.97;;;;;;;;;;4997855;28;20240;-72
2022/05/23 05:36:28;;;;;;;9.10;3.30;;;;;;;;;;4995068;28;20570;-72
2022/05/23 05:38:58;;;;;;;3.30;2.97;;;;;;;;;;4994088;28;20225;-72
2022/05/23 05:41:28;;;;;;;5.17;3.17;;;;;;;;;;4993908;28;20213;-71
2022/05/23 05:43:59;;;;;;;6.43;3.23;;;;;;;;;;4989694;28;20202;-71
2022/05/23 05:46:30;;;;;;;4.43;2.87;;;;;;;;;;4993493;28;20256;-72
2022/05/23 05:49:00;;;;;;;7.10;3.20;;;;;;;;;;4993192;28;20229;-72
2022/05/23 05:51:29;;;;;;;4.87;3.00;;;;;;;;;;4994653;28;20267;-72
2022/05/23 05:53:57;;;;;;;3.73;3.37;;;;;;;;;;4994277;28;20754;-72
2022/05/23 05:56:26;;;;;;;4.77;3.20;;;;;;;;;;4994313;28;20567;-72
2022/05/23 05:58:54;;;;;;;5.00;2.83;;;;;;;;;;4994206;28;20229;-72
2022/05/23 06:01:24;;;;;;;4.47;2.90;;;;;;;;;;4995058;28;20212;-72
2022/05/23 06:03:53;;;;;;;5.47;3.20;;;;;;;;;;4994520;28;20205;-72
2022/05/23 06:12:00;;;;;;;5.80;3.50;;;;;;;;;;4990310;28;20652;-73
2022/05/23 06:14:28;;;;;;;6.17;3.90;;;;;;;;;;4994363;28;20684;-72
2022/05/23 06:16:58;;;;;;;3.90;3.40;;;;;;;;;;4994751;28;20739;-72
2022/05/23 06:19:26;;;;;;;8.27;4.50;;;;;;;;;;4994363;28;20205;-73
2022/05/23 06:21:55;;;;;;;7.33;3.90;;;;;;;;;;4994542;28;20676;-72
2022/05/23 06:24:23;;;;;;;4.80;3.53;;;;;;;;;;4992548;28;20268;-72
2022/05/23 06:26:52;;;;;;;6.13;3.30;;;;;;;;;;4975449;28;20233;-73
2022/05/23 06:29:20;;;;;;;5.07;3.10;;;;;;;;;;4991222;28;20333;-73
2022/05/23 06:31:48;;;;;;;4.07;3.00;;;;;;;;;;4994992;28;20564;-74
2022/05/23 06:34:18;;;;;;;4.63;2.80;;;;;;;;;;4997539;28;20260;-73
2022/05/23 06:36:47;;;;;;;5.27;2.90;;;;;;;;;;4994764;28;20259;-73
2022/05/23 06:39:15;;;;;;;5.13;3.17;;;;;;;;;;4992963;28;20907;-73
2022/05/23 06:41:43;;;;;;;4.13;2.97;;;;;;;;;;4994726;28;20267;-72
2022/05/23 06:44:12;;;;;;;3.10;2.70;;;;;;;;;;4993932;28;20206;-72
2022/05/23 06:46:40;;;;;;;5.57;3.00;;;;;;;;;;4994322;28;20224;-72
2022/05/23 06:49:09;;;;;;;6.37;3.13;;;;;;;;;;4993780;28;20229;-72
2022/05/23 06:51:49;;;;;;;3.70;2.80;;;;;;;;;;4994590;28;20205;-72
2022/05/23 06:54:18;;;;;;;4.50;3.10;;;;;;;;;;4992175;28;20205;-72
2022/05/23 06:56:48;;;;;;;6.00;3.30;;;;;;;;;;4993828;28;20223;-72
2022/05/23 06:59:17;;;;;;;6.17;3.23;;;;;;;;;;4992841;28;20229;-72
2022/05/23 07:01:46;;;;;;;4.57;3.43;;;;;;;;;;4993866;28;20220;-73
2022/05/23 07:04:15;;;;;;;7.03;2.90;;;;;;;;;;4993747;28;20284;-72
2022/05/23 07:12:28;;;;;;;4.23;3.10;;;;;;;;;;4993616;28;20217;-72
2022/05/23 07:14:57;;;;;;;3.97;3.27;;;;;;;;;;4993265;28;20270;-73
2022/05/23 07:17:26;;;;;;;5.93;3.10;;;;;;;;;;4993842;28;20229;-72
2022/05/23 07:19:56;;;;;;;5.53;2.83;;;;;;;;;;4992398;28;20624;-72
2022/05/23 07:22:26;;;;;;;4.00;3.23;;;;;;;;;;4992641;28;20216;-72
2022/05/23 07:24:54;;;;;;;3.80;3.13;;;;;;;;;;4992557;28;20263;-73
2022/05/23 07:27:25;;;;;;;5.63;3.13;;;;;;;;;;4993258;28;20226;-72
2022/05/23 07:29:54;;;;;;;4.37;3.00;;;;;;;;;;4993935;28;20209;-73
2022/05/23 07:32:29;;;;;;;6.10;3.27;;;;;;;;;;4996284;28;20205;-72
2022/05/23 07:34:59;;;;;;;4.87;3.00;;;;;;;;;;4994426;28;20641;-72
2022/05/23 07:37:29;;;;;;;5.20;3.33;;;;;;;;;;4992492;28;20260;-72
2022/05/23 07:39:57;;;;;;;3.67;3.00;;;;;;;;;;4993317;28;20260;-72
2022/05/23 07:42:25;;;;;;;5.20;3.13;;;;;;;;;;4993769;28;20205;-72
2022/05/23 07:44:54;;;;;;;5.88;3.30;;;;;;;;;;4992831;28;20205;-72
2022/05/23 07:47:22;;;;;;;8.77;3.40;;;;;;;;;;4993355;28;20225;-72
2022/05/23 07:49:50;;;;;;;5.00;3.20;;;;;;;;;;4993599;28;20924;-73
2022/05/23 07:52:19;;;;;;;6.90;3.60;;;;;;;;;;4992434;28;20204;-72
2022/05/23 08:00:33;;;;;;;3.58;3.28;;;;;;;;;;4990038;28;20208;-72
2022/05/23 08:03:03;;;;;;;3.45;3.10;;;;;;;;;;4993327;28;20204;-73
2022/05/23 08:05:31;;;;;;;4.77;3.50;;;;;;;;;;4991594;28;20197;-73
2022/05/23 08:08:00;;;;;;;5.30;3.47;;;;;;;;;;4993251;28;20617;-72
2022/05/23 08:10:30;;;;;;;4.28;3.42;;;;;;;;;;4993013;28;20205;-72
2022/05/23 08:12:59;;;;;;;5.30;3.40;;;;;;;;;;4993427;28;20209;-72
2022/05/23 08:15:29;;;;;;;5.27;3.20;;;;;;;;;;4993203;28;20233;-72
2022/05/23 08:17:58;;;;;;;4.70;3.33;;;;;;;;;;4993585;28;20225;-72
2022/05/23 08:20:26;;;;;;;5.63;3.38;;;;;;;;;;4992479;28;20205;-73
2022/05/23 08:22:57;;;;;;;5.18;3.05;;;;;;;;;;4992371;28;20221;-72
2022/05/23 08:25:26;;;;;;;4.70;3.20;;;;;;;;;;4993257;28;20263;-72
2022/05/23 08:27:55;;;;;;;4.28;3.63;;;;;;;;;;4991385;28;20361;-72
2022/05/23 08:30:25;;;;;;;4.13;3.40;;;;;;;;;;4993115;28;20239;-72
2022/05/23 08:32:53;;;;;;;5.82;3.38;;;;;;;;;;4992802;28;20205;-73
2022/05/23 08:35:24;;;;;;;5.82;3.55;;;;;;;;;;4993081;28;20222;-72
2022/05/23 08:37:55;;;;;;;5.38;3.55;;;;;;;;;;4993075;28;20231;-72
2022/05/23 08:40:27;;;;;;;3.78;3.28;;;;;;;;;;4995785;28;20216;-72
2022/05/23 08:42:58;;;;;;;4.47;3.35;;;;;;;;;;4996698;28;20209;-72
2022/05/23 08:45:30;;;;;;;4.78;3.55;;;;;;;;;;4994899;28;20692;-72
2022/05/23 08:48:05;;;;;;;5.50;3.60;;;;;;;;;;4996575;28;20256;-73
2022/05/23 08:50:41;;;;;;;5.65;3.60;;;;;;;;;;4996672;28;20655;-73
2022/05/23 08:53:13;;;;;;;6.53;3.40;;;;;;;;;;4996328;28;20267;-72
2022/05/23 08:55:43;;;;;;;4.40;3.45;;;;;;;;;;4996085;28;20220;-72
2022/05/23 08:58:15;;;;;;;7.97;3.97;;;;;;;;;;4995817;28;20229;-72
2022/05/23 09:00:44;;;;;;;5.40;3.75;;;;;;;;;;4994942;28;20661;-72
2022/05/23 09:03:19;;;;;;;4.20;3.40;;;;;;;;;;4995968;28;20205;-72
2022/05/23 09:05:51;;;;;;;3.80;3.30;;;;;;;;;;4987505;28;20209;-72
2022/05/23 09:08:39;;;;;;;3.90;2.92;;;;;;;;;;4995932;28;20225;-73
2022/05/23 09:11:11;;;;;;;4.20;2.90;;;;;;;;;;4996100;28;20597;-72
2022/05/23 09:13:47;;;;;;;4.00;2.80;;;;;;;;;;4995672;28;20299;-72
2022/05/23 09:16:16;;;;;;;4.05;2.40;;;;;;;;;;4994850;28;20275;-72
2022/05/23 09:18:46;;;;;;;3.88;2.90;;;;;;;;;;4995356;28;20259;-73
2022/05/23 09:21:14;;;;;;;5.70;2.97;;;;;;;;;;4995852;28;20577;-72
2022/05/23 09:23:47;;;;;;;4.63;2.70;;;;;;;;;;4995283;28;20671;-72
2022/05/23 09:26:19;;;;;;;4.72;2.97;;;;;;;;;;4995804;28;20213;-72
2022/05/23 09:28:51;;;;;;;3.33;3.03;;;;;;;;;;4994562;28;20238;-72
2022/05/23 09:31:25;;;;;;;3.58;2.80;;;;;;;;;;4997474;28;20220;-73
2022/05/23 09:33:56;;;;;;;3.20;2.75;;;;;;;;;;4997194;28;20307;-72
2022/05/23 09:36:26;;;;;;;4.72;2.90;;;;;;;;;;4995468;28;20213;-73
2022/05/23 09:38:56;;;;;;;3.05;2.70;;;;;;;;;;4995048;28;20225;-72
2022/05/23 09:41:29;;;;;;;4.18;2.97;;;;;;;;;;4995463;28;20212;-72
2022/05/23 09:49:52;;;;;;;6.03;3.20;;;;;;;;;;4993728;28;20239;-73
2022/05/23 09:52:25;;;;;;;3.88;3.20;;;;;;;;;;4995102;28;20267;-73
2022/05/23 09:54:55;;;;;;;5.05;3.00;;;;;;;;;;4995087;28;20212;-72
2022/05/23 09:57:25;;;;;;;4.38;3.05;;;;;;;;;;4994640;28;20253;-73
2022/05/23 09:59:57;;;;;;;6.43;3.30;;;;;;;;;;4994329;28;20219;-73
2022/05/23 10:02:33;;;;;;;4.93;3.10;;;;;;;;;;4994936;28;20255;-72
2022/05/23 10:05:03;;;;;;;7.47;3.10;;;;;;;;;;4992929;28;20675;-73
2022/05/23 10:07:33;;;;;;;6.38;3.10;;;;;;;;;;4994308;28;20220;-72
2022/05/23 10:10:02;;;;;;;4.25;3.03;;;;;;;;;;4988763;28;20672;-73
2022/05/23 10:12:32;;;;;;;4.10;2.95;;;;;;;;;;4993960;28;20553;-73
2022/05/23 10:15:11;;;;;;;4.65;3.08;;;;;;;;;;4992700;28;20217;-72
2022/05/23 10:17:41;;;;;;;3.60;3.00;;;;;;;;;;4994279;28;20232;-72
2022/05/23 10:20:20;;;;;;;5.13;2.92;;;;;;;;;;4994839;28;20284;-74
2022/05/23 10:22:59;;;;;;;5.70;3.33;;;;;;;;;;4994562;28;20217;-73
2022/05/23 10:25:30;;;;;;;5.63;3.03;;;;;;;;;;4994401;28;20687;-73
2022/05/23 10:28:03;;;;;;;3.50;2.70;;;;;;;;;;4993640;28;20225;-74
2022/05/23 10:30:35;;;;;;;4.10;3.38;;;;;;;;;;4995562;28;20657;-73
2022/05/23 10:33:07;;;;;;;3.65;3.30;;;;;;;;;;4996576;28;20656;-73
2022/05/23 10:35:38;;;;;;;4.13;3.10;;;;;;;;;;4994009;28;20213;-75
2022/05/23 10:43:47;;;;;;;5.30;3.20;;;;;;;;;;4985465;28;20217;-74
2022/05/23 10:46:17;;;;;;;6.85;2.90;;;;;;;;;;4994296;28;20205;-73
2022/05/23 10:48:54;;;;;;;4.97;2.70;;;;;;;;;;4993872;28;20232;-73
2022/05/23 10:51:33;;;;;;;4.72;2.80;;;;;;;;;;4994412;28;20209;-73
2022/05/23 10:54:07;;;;;;;6.80;3.00;;;;;;;;;;4993348;28;20205;-72
2022/05/23 10:56:43;;;;;;;3.00;2.30;;;;;;;;;;4992841;28;20559;-73
2022/05/23 10:59:16;;;;;;;4.63;3.03;;;;;;;;;;4993547;28;20623;-72
2022/05/23 11:01:52;;;;;;;4.13;2.80;;;;;;;;;;4993363;28;20213;-74
2022/05/23 11:04:28;;;;;;;7.43;3.15;;;;;;;;;;4993766;28;20205;-73
2022/05/23 11:07:03;;;;;;;4.93;3.05;;;;;;;;;;4974248;28;20673;-74
2022/05/23 11:09:36;;;;;;;4.82;3.10;;;;;;;;;;4991934;28;20219;-73
2022/05/23 11:12:11;;;;;;;4.32;3.33;;;;;;;;;;4992905;28;20208;-74
2022/05/23 11:14:43;;;;;;;5.28;3.35;;;;;;;;;;4993479;28;20213;-72
2022/05/23 11:17:25;;;;;;;6.05;3.13;;;;;;;;;;4994108;28;20240;-73
2022/05/23 11:20:03;;;;;;;3.88;3.00;;;;;;;;;;4974345;28;20210;-73
2022/05/23 11:22:33;;;;;;;5.03;2.88;;;;;;;;;;4976064;28;20217;-74
2022/05/23 11:25:06;;;;;;;6.18;3.28;;;;;;;;;;4993110;28;20205;-74
2022/05/23 11:36:00;;;;;;;4.60;3.15;;;;;;;;;;4974141;28;20209;-74
2022/05/23 11:38:29;;;;;;;3.78;2.90;;;;;;;;;;4983166;28;20232;-74
2022/05/23 11:41:03;;;;;;;4.88;3.03;;;;;;;;;;4992018;28;20205;-72
2022/05/23 11:43:31;;;;;;;3.38;2.95;;;;;;;;;;4992968;28;20209;-73
2022/05/23 11:46:02;;;;;;;4.18;2.90;;;;;;;;;;4993773;28;20248;-73
2022/05/23 11:48:46;;;;;;;5.70;3.42;;;;;;;;;;4995254;28;20229;-73
2022/05/23 11:51:26;;;;;;;3.70;2.65;;;;;;;;;;4993281;28;20213;-74
2022/05/23 11:53:57;;;;;;;3.85;2.88;;;;;;;;;;4992147;28;20264;-73
2022/05/23 11:56:37;;;;;;;4.88;3.28;;;;;;;;;;4993288;28;20213;-74
2022/05/23 11:59:06;;;;;;;4.75;3.10;;;;;;;;;;4992852;28;20233;-73
2022/05/23 12:01:35;;;;;;;4.65;2.85;;;;;;;;;;4993250;28;20213;-73
2022/05/23 12:04:27;;;;;;;4.30;3.20;;;;;;;;;;4993094;28;20209;-74
2022/05/23 12:06:57;;;;;;;6.43;3.05;;;;;;;;;;4981449;28;20271;-74
2022/05/23 12:09:27;;;;;;;7.50;2.85;;;;;;;;;;4989737;28;20711;-74
2022/05/23 12:12:11;;;;;;;6.72;2.60;;;;;;;;;;4985123;28;20205;-73
2022/05/23 12:14:53;;;;;;;2.63;2.30;;;;;;;;;;4996104;28;20201;-75
2022/05/23 12:17:24;;;;;;;7.38;2.72;;;;;;;;;;4994326;28;20233;-73
2022/05/23 12:19:54;;;;;;;5.25;2.40;;;;;;;;;;4995130;28;20614;-74
2022/05/23 12:32:33;;;;;;;3.08;2.40;;;;;;;;;;4296694;28;10002153;-73
2022/05/23 12:35:07;;;;;;;3.47;2.47;;;;;;;;;;4992528;28;20205;-74
2022/05/23 12:37:38;;;;;;;4.80;2.63;;;;;;;;;;4996384;28;20759;-73
2022/05/23 12:40:11;;;;;;;2.75;2.50;;;;;;;;;;4974796;28;20206;-73
2022/05/23 12:42:48;;;;;;;5.00;2.53;;;;;;;;;;4976229;28;20202;-72
2022/05/23 12:45:36;;;;;;;4.05;2.45;;;;;;;;;;4973156;28;20210;-74
2022/05/23 12:48:19;;;;;;;3.75;2.53;;;;;;;;;;4970816;28;20759;-74
2022/05/23 12:50:57;;;;;;;2.92;1.90;;;;;;;;;;4972251;28;20213;-74
2022/05/23 12:53:34;;;;;;;5.57;2.38;;;;;;;;;;4974462;28;20260;-74
2022/05/23 12:56:13;;;;;;;2.95;2.17;;;;;;;;;;4970781;28;20592;-73
2022/05/23 12:58:51;;;;;;;3.22;2.00;;;;;;;;;;4976000;28;20221;-74
2022/05/23 13:01:23;;;;;;;4.25;2.20;;;;;;;;;;4974502;28;20205;-72
2022/05/23 13:04:03;;;;;;;5.35;2.40;;;;;;;;;;4974486;28;20202;-73
2022/05/23 13:06:35;;;;;;;5.85;2.25;;;;;;;;;;4964104;28;20288;-74
2022/05/23 13:09:06;;;;;;;2.58;2.08;;;;;;;;;;4975260;28;20309;-73
2022/05/23 13:11:37;;;;;;;2.75;2.00;;;;;;;;;;4975665;28;20198;-72
2022/05/23 13:14:06;;;;;;;3.47;2.20;;;;;;;;;;4975632;28;20202;-73
2022/05/23 13:16:36;;;;;;;2.50;2.08;;;;;;;;;;4975235;28;20228;-72
2022/05/23 13:25:37;;;;;;;2.50;2.00;;;;;;;;;;4975347;28;20508;-75
2022/05/23 13:28:08;;;;;;;3.83;2.20;;;;;;;;;;4972154;28;20217;-75
2022/05/23 13:30:38;;;;;;;5.07;2.42;;;;;;;;;;4976759;28;20217;-75
2022/05/23 13:33:09;;;;;;;4.80;2.10;;;;;;;;;;4973686;28;20210;-74
2022/05/23 13:35:38;;;;;;;3.35;2.10;;;;;;;;;;4975296;28;20198;-75
2022/05/23 13:38:14;;;;;;;3.25;2.15;;;;;;;;;;4974653;28;20229;-74
2022/05/23 13:40:46;;;;;;;3.40;2.10;;;;;;;;;;4975736;28;20720;-75
2022/05/23 13:43:15;;;;;;;3.13;2.08;;;;;;;;;;4975623;28;20202;-75
2022/05/23 13:45:44;;;;;;;3.58;2.10;;;;;;;;;;4973663;28;20206;-74
2022/05/23 13:48:16;;;;;;;5.47;2.30;;;;;;;;;;4963168;28;20555;-73
2022/05/23 13:50:47;;;;;;;3.55;2.08;;;;;;;;;;4971920;28;20604;-74
2022/05/23 13:53:18;;;;;;;7.57;2.40;;;;;;;;;;4972586;28;20738;-75
2022/05/23 13:55:54;;;;;;;2.90;2.20;;;;;;;;;;4973540;28;20268;-74
2022/05/23 13:58:31;;;;;;;5.07;2.00;;;;;;;;;;4967730;28;20680;-76
2022/05/23 14:01:03;;;;;;;3.63;2.00;;;;;;;;;;4970420;28;20276;-75
2022/05/23 14:03:34;;;;;;;5.30;2.25;;;;;;;;;;4970572;28;20213;-75
2022/05/23 14:06:05;;;;;;;2.35;1.90;;;;;;;;;;4970990;28;20225;-74
2022/05/23 14:08:40;;;;;;;2.85;2.30;;;;;;;;;;4972571;28;20218;-74
2022/05/23 14:11:21;;;;;;;7.13;2.30;;;;;;;;;;4971511;28;20233;-73
2022/05/23 14:13:57;;;;;;;3.63;1.90;;;;;;;;;;4962550;28;20654;-73
2022/05/23 14:16:32;;;;;;;3.35;2.03;;;;;;;;;;4961650;28;20214;-74
2022/05/23 14:19:04;;;;;;;3.72;2.08;;;;;;;;;;4974589;28;20280;-72
2022/05/23 14:21:36;;;;;;;2.97;2.05;;;;;;;;;;4974240;28;20237;-75
2022/05/23 14:24:20;;;;;;;3.67;2.10;;;;;;;;;;4971662;28;20284;-74
2022/05/23 14:27:13;;;;;;;3.53;2.10;;;;;;;;;;4969628;28;20215;-73
2022/05/23 14:29:47;;;;;;;2.75;1.80;;;;;;;;;;4970024;28;20202;-74
2022/05/23 14:32:28;;;;;;;4.28;2.17;;;;;;;;;;4972063;28;20870;-74
2022/05/23 14:35:18;;;;;;;4.68;2.13;;;;;;;;;;4973716;28;20209;-73
2022/05/23 14:37:55;;;;;;;3.42;2.10;;;;;;;;;;4974136;28;20243;-74
2022/05/23 14:40:33;;;;;;;3.92;1.90;;;;;;;;;;4962353;28;20715;-74
2022/05/23 14:43:07;;;;;;;5.50;2.05;;;;;;;;;;4973706;28;20213;-75
2022/05/23 14:45:36;;;;;;;3.33;1.80;;;;;;;;;;4968515;28;20228;-75
2022/05/23 14:48:15;;;;;;;4.15;2.30;;;;;;;;;;4974750;28;20284;-74
2022/05/23 14:50:45;;;;;;;3.47;2.05;;;;;;;;;;4971698;28;20256;-73
2022/05/23 14:56:11;;;;;;;5.38;2.20;;;;;;;;;;4937681;28;20650;-74
2022/05/23 15:01:29;;;;;;;6.28;1.88;;;;;;;;;;4971013;28;20669;-73
2022/05/23 15:03:58;;;;;;;3.30;2.20;;;;;;;;;;4974445;28;20198;-73
2022/05/23 15:06:29;;;;;;;3.47;1.90;;;;;;;;;;4966634;28;20272;-75
2022/05/23 15:08:59;;;;;;;2.90;2.10;;;;;;;;;;4971730;28;20233;-73
2022/05/23 15:11:29;;;;;;;4.82;2.20;;;;;;;;;;4972196;28;20288;-74
2022/05/23 15:14:00;;;;;;;4.50;1.73;;;;;;;;;;4974191;28;20249;-74
2022/05/23 15:16:33;;;;;;;3.17;1.95;;;;;;;;;;4986086;28;20213;-73
2022/05/23 15:19:03;;;;;;;3.47;1.98;;;;;;;;;;4973065;28;20233;-74
2022/05/23 15:21:32;;;;;;;4.25;2.10;;;;;;;;;;4973014;28;20205;-73
2022/05/23 15:24:00;;;;;;;2.10;1.90;;;;;;;;;;4973204;28;20213;-72
2022/05/23 15:26:31;;;;;;;8.10;2.30;;;;;;;;;;4973228;28;20257;-74
2022/05/23 15:29:02;;;;;;;6.93;3.40;;;;;;;;;;4971911;28;20233;-75
2022/05/23 15:31:34;;;;;;;5.78;2.40;;;;;;;;;;4972015;28;20732;-73
2022/05/23 15:34:06;;;;;;;3.50;2.40;;;;;;;;;;4973271;28;20212;-73
2022/05/23 15:36:36;;;;;;;5.90;3.60;;;;;;;;;;4972113;28;20645;-75
2022/05/23 15:39:05;;;;;;;5.80;3.17;;;;;;;;;;4972814;28;20621;-73
2022/05/23 15:41:36;;;;;;;4.90;2.60;;;;;;;;;;4970870;28;20210;-73
2022/05/23 15:44:08;;;;;;;3.80;2.50;;;;;;;;;;4968766;28;20209;-73
2022/05/23 15:46:36;;;;;;;5.03;2.38;;;;;;;;;;4968537;28;20294;-75
2022/05/23 15:49:05;;;;;;;5.30;2.22;;;;;;;;;;4968491;28;21782;-74
2022/05/23 15:51:33;;;;;;;3.90;2.13;;;;;;;;;;4975016;28;20268;-73
2022/05/23 15:54:02;;;;;;;4.68;2.50;;;;;;;;;;4974854;28;20210;-74
2022/05/23 16:00:34;;;;;;;4.32;2.50;;;;;;;;;;4770849;27;10000288;-74
2022/05/23 16:03:04;;;;;;;4.53;2.30;;;;;;;;;;5113538;27;20205;-75
2022/05/23 16:05:33;;;;;;;6.35;2.58;;;;;;;;;;5122794;27;20200;-76
2022/05/23 16:08:04;;;;;;;3.35;2.35;;;;;;;;;;5116063;27;20224;-75
2022/05/23 16:10:54;;;;;;;4.80;2.55;;;;;;;;;;5107000;27;20205;-76
2022/05/23 16:13:23;;;;;;;4.30;2.55;;;;;;;;;;5109858;28;20262;-76
2022/05/23 16:15:54;;;;;;;3.13;2.30;;;;;;;;;;5105720;28;20208;-75
2022/05/23 16:18:23;;;;;;;3.53;2.40;;;;;;;;;;5102970;28;20231;-73
2022/05/23 16:20:53;;;;;;;6.80;2.67;;;;;;;;;;5108091;28;20299;-74
2022/05/23 16:23:22;;;;;;;4.82;2.80;;;;;;;;;;5108236;27;20262;-75
2022/05/23 16:25:51;;;;;;;4.10;2.65;;;;;;;;;;5105212;28;20212;-74